createdAt,value
2018-09-02T00:01:02.322Z,37.03
2018-09-02T00:03:31.661Z,35.93
2018-09-02T00:05:59.911Z,36.47
2018-09-02T00:08:27.808Z,33.03
2018-09-02T00:10:56.449Z,32.43
2018-09-02T00:13:24.351Z,32.83
2018-09-02T00:15:52.266Z,31.43
2018-09-02T00:18:20.262Z,33.63
2018-09-02T00:20:49.092Z,35.27
2018-09-02T00:23:16.991Z,36.03
2018-09-02T00:25:45.467Z,31.80
2018-09-02T00:28:13.373Z,34.33
2018-09-02T00:30:41.276Z,33.33
2018-09-02T00:33:10.598Z,33.57
2018-09-02T00:35:39.008Z,34.23
2018-09-02T00:38:06.862Z,36.10
2018-09-02T00:40:35.463Z,34.77
2018-09-02T00:43:03.342Z,32.60
2018-09-02T00:45:32.271Z,32.77
2018-09-02T00:48:00.714Z,32.77
2018-09-02T00:50:28.586Z,33.73
2018-09-02T00:52:56.485Z,32.97
2018-09-02T00:55:24.628Z,31.60
2018-09-02T00:57:52.489Z,33.53
2018-09-02T01:00:20.902Z,32.90
2018-09-02T01:02:48.812Z,30.00
2018-09-02T01:05:16.719Z,30.97
2018-09-02T01:07:45.371Z,29.60
2018-09-02T01:10:13.289Z,31.67
2018-09-02T01:12:41.848Z,31.20
2018-09-02T01:15:10.431Z,33.33
2018-09-02T01:17:38.621Z,28.87
2018-09-02T01:20:06.621Z,29.63
2018-09-02T01:22:35.398Z,31.83
2018-09-02T01:25:03.306Z,30.97
2018-09-02T01:27:31.467Z,31.30
2018-09-02T01:29:59.373Z,32.03
2018-09-02T01:32:27.282Z,29.30
2018-09-02T01:34:55.146Z,31.00
2018-09-02T01:37:23.014Z,30.60
2018-09-02T01:39:50.910Z,30.47
2018-09-02T01:42:18.838Z,31.47
2018-09-02T01:44:46.705Z,29.90
2018-09-02T01:47:15.438Z,30.47
2018-09-02T01:49:43.327Z,30.90
2018-09-02T01:52:11.210Z,29.50
2018-09-02T01:54:39.161Z,31.70
2018-09-02T01:57:07.845Z,30.70
2018-09-02T01:59:35.882Z,32.20
2018-09-02T02:02:04.095Z,30.63
2018-09-02T02:04:37.727Z,33.50
2018-09-02T02:07:05.663Z,31.60
2018-09-02T02:09:33.561Z,31.87
2018-09-02T02:12:01.450Z,34.20
2018-09-02T02:14:29.321Z,31.20
2018-09-02T02:16:57.299Z,32.20
2018-09-02T02:19:25.199Z,32.73
2018-09-02T02:21:53.579Z,29.37
2018-09-02T02:24:22.113Z,30.70
2018-09-02T02:26:50.744Z,33.90
2018-09-02T02:29:19.429Z,32.87
2018-09-02T02:31:47.304Z,31.77
2018-09-02T02:34:15.787Z,31.17
2018-09-02T02:36:43.675Z,32.70
2018-09-02T02:39:12.203Z,31.53
2018-09-02T02:41:41.311Z,31.97
2018-09-02T02:44:09.200Z,31.90
2018-09-02T02:46:37.334Z,29.70
2018-09-02T02:49:05.635Z,31.63
2018-09-02T02:51:34.207Z,29.70
2018-09-02T02:54:02.867Z,31.47
2018-09-02T02:56:30.753Z,29.17
2018-09-02T02:58:58.605Z,31.00
2018-09-02T03:01:26.473Z,28.67
2018-09-02T03:03:54.905Z,29.50
2018-09-02T03:06:22.825Z,31.03
2018-09-02T03:08:51.042Z,29.00
2018-09-02T03:11:18.973Z,28.70
2018-09-02T03:13:47.419Z,28.00
2018-09-02T03:16:15.974Z,28.20
2018-09-02T03:18:44.555Z,27.20
2018-09-02T03:21:13.448Z,27.20
2018-09-02T03:23:41.365Z,28.50
2018-09-02T03:26:09.290Z,24.23
2018-09-02T03:28:37.139Z,27.33
2018-09-02T03:31:05.417Z,27.60
2018-09-02T03:33:33.836Z,24.97
2018-09-02T03:36:01.723Z,28.13
2018-09-02T03:38:29.639Z,28.53
2018-09-02T03:40:57.574Z,27.00
2018-09-02T03:43:26.747Z,27.13
2018-09-02T03:45:54.687Z,24.40
2018-09-02T03:48:22.840Z,26.63
2018-09-02T03:50:50.749Z,27.53
2018-09-02T03:53:18.695Z,24.70
2018-09-02T03:55:48.054Z,25.47
2018-09-02T03:58:15.962Z,28.60
2018-09-02T04:00:43.822Z,24.40
2018-09-02T04:03:12.759Z,25.50
2018-09-02T04:05:40.675Z,24.57
2018-09-02T04:08:08.609Z,26.93
2018-09-02T04:10:36.525Z,27.00
2018-09-02T04:13:04.656Z,27.00
2018-09-02T04:15:32.541Z,25.70
2018-09-02T04:18:01.214Z,23.70
2018-09-02T04:20:33.444Z,23.60
2018-09-02T04:23:02.188Z,23.83
2018-09-02T04:25:30.771Z,25.33
2018-09-02T04:27:58.719Z,22.50
2018-09-02T04:30:27.003Z,23.00
2018-09-02T04:32:55.891Z,24.60
2018-09-02T04:35:24.378Z,22.50
2018-09-02T04:37:53.488Z,24.60
2018-09-02T04:40:22.283Z,20.20
2018-09-02T04:42:50.193Z,21.10
2018-09-02T04:45:18.269Z,22.27
2018-09-02T04:47:46.431Z,23.03
2018-09-02T04:50:20.142Z,21.80
2018-09-02T04:52:48.624Z,22.10
2018-09-02T04:55:18.092Z,22.20
2018-09-02T04:57:45.968Z,22.93
2018-09-02T05:00:14.663Z,21.70
2018-09-02T05:02:42.546Z,23.47
2018-09-02T05:05:12.627Z,21.03
2018-09-02T05:07:40.493Z,22.27
2018-09-02T05:10:08.758Z,20.17
2018-09-02T05:12:36.657Z,19.87
2018-09-02T05:15:04.751Z,21.00
2018-09-02T05:17:33.552Z,19.37
2018-09-02T05:20:02.151Z,21.50
2018-09-02T05:22:30.318Z,20.63
2018-09-02T05:24:58.218Z,21.60
2018-09-02T05:27:27.003Z,21.00
2018-09-02T05:29:54.912Z,22.80
2018-09-02T05:32:22.885Z,20.00
2018-09-02T05:34:50.774Z,21.30
2018-09-02T05:37:18.889Z,22.90
2018-09-02T05:39:46.801Z,20.87
2018-09-02T05:42:14.666Z,23.93
2018-09-02T05:44:42.681Z,22.57
2018-09-02T05:47:10.579Z,22.03
2018-09-02T05:49:39.638Z,20.50
2018-09-02T05:52:07.533Z,21.77
2018-09-02T05:54:35.427Z,21.37
2018-09-02T05:57:03.326Z,23.30
2018-09-02T05:59:31.193Z,21.50
2018-09-02T06:01:59.499Z,20.97
2018-09-02T06:04:27.415Z,19.03
2018-09-02T06:06:55.397Z,20.67
2018-09-02T06:09:23.293Z,21.80
2018-09-02T06:11:51.209Z,21.83
2018-09-02T06:14:19.212Z,21.47
2018-09-02T06:16:47.159Z,21.03
2018-09-02T06:19:15.331Z,20.90
2018-09-02T06:21:43.275Z,21.30
2018-09-02T06:24:11.870Z,21.60
2018-09-02T06:26:39.878Z,20.83
2018-09-02T06:29:07.847Z,21.93
2018-09-02T06:31:35.746Z,19.77
2018-09-02T06:34:03.625Z,19.27
2018-09-02T06:36:31.521Z,21.03
2018-09-02T06:39:00.516Z,21.60
2018-09-02T06:41:29.663Z,21.10
2018-09-02T06:43:58.304Z,20.77
2018-09-02T06:46:26.223Z,20.07
2018-09-02T06:48:54.243Z,20.53
2018-09-02T06:51:22.139Z,21.13
2018-09-02T06:53:50.740Z,19.60
2018-09-02T06:56:18.620Z,19.40
2018-09-02T06:58:47.091Z,21.00
2018-09-02T07:01:14.934Z,18.60
2018-09-02T07:03:42.801Z,19.27
2018-09-02T07:06:10.706Z,21.13
2018-09-02T07:08:38.981Z,19.93
2018-09-02T07:11:06.887Z,20.07
2018-09-02T07:13:35.465Z,18.57
2018-09-02T07:16:03.984Z,19.60
2018-09-02T07:18:31.982Z,18.47
2018-09-02T07:20:59.989Z,19.47
2018-09-02T07:23:28.796Z,19.10
2018-09-02T07:25:56.661Z,19.27
2018-09-02T07:28:24.643Z,19.47
2018-09-02T07:30:52.591Z,19.33
2018-09-02T07:33:20.667Z,18.33
2018-09-02T07:35:48.789Z,17.60
2018-09-02T07:38:16.763Z,18.60
2018-09-02T07:40:45.241Z,17.47
2018-09-02T07:43:13.620Z,18.77
2018-09-02T07:45:41.518Z,17.60
2018-09-02T07:48:10.591Z,15.53
2018-09-02T07:50:38.451Z,16.20
2018-09-02T07:53:06.317Z,15.03
2018-09-02T07:55:34.241Z,13.70
2018-09-02T07:58:02.769Z,14.27
2018-09-02T08:00:30.950Z,13.17
2018-09-02T08:02:59.141Z,13.20
2018-09-02T08:05:27.063Z,11.80
2018-09-02T08:07:55.580Z,14.20
2018-09-02T08:10:24.227Z,12.10
2018-09-02T08:12:52.285Z,11.20
2018-09-02T08:15:20.305Z,11.70
2018-09-02T08:17:48.466Z,11.67
2018-09-02T08:20:17.410Z,13.20
2018-09-02T08:22:45.985Z,11.93
2018-09-02T08:25:13.890Z,11.97
2018-09-02T08:27:42.445Z,12.03
2018-09-02T08:30:10.993Z,10.90
2018-09-02T08:32:38.862Z,10.53
2018-09-02T08:35:06.763Z,11.70
2018-09-02T08:37:36.430Z,11.40
2018-09-02T08:40:05.003Z,11.27
2018-09-02T08:42:32.906Z,12.20
2018-09-02T08:45:00.842Z,11.80
2018-09-02T08:47:28.843Z,11.63
2018-09-02T08:49:56.763Z,11.50
2018-09-02T08:52:24.661Z,12.13
2018-09-02T08:54:53.511Z,12.27
2018-09-02T08:57:21.423Z,12.17
2018-09-02T08:59:49.338Z,13.20
2018-09-02T09:02:17.550Z,12.77
2018-09-02T09:04:46.777Z,12.23
2018-09-02T09:07:14.706Z,11.57
2018-09-02T09:09:42.588Z,11.17
2018-09-02T09:12:11.122Z,10.27
2018-09-02T09:14:40.474Z,10.90
2018-09-02T09:17:09.228Z,12.17
2018-09-02T09:19:37.421Z,12.73
2018-09-02T09:22:05.798Z,12.83
2018-09-02T09:24:35.034Z,12.37
2018-09-02T09:27:03.109Z,11.37
2018-09-02T09:29:32.557Z,11.53
2018-09-02T09:32:01.101Z,11.43
2018-09-02T09:34:29.657Z,11.10
2018-09-02T09:36:57.561Z,10.00
2018-09-02T09:39:26.303Z,11.10
2018-09-02T09:41:54.286Z,11.40
2018-09-02T09:44:22.199Z,12.60
2018-09-02T09:46:51.283Z,12.50
2018-09-02T09:49:19.285Z,12.77
2018-09-02T09:51:48.208Z,12.60
2018-09-02T09:54:16.749Z,13.60
2018-09-02T09:56:44.656Z,11.63
2018-09-02T09:59:13.701Z,13.27
2018-09-02T10:01:42.039Z,14.10
2018-09-02T10:04:11.061Z,11.70
2018-09-02T10:06:39.381Z,12.23
2018-09-02T10:09:11.051Z,12.37
2018-09-02T10:11:39.025Z,14.00
2018-09-02T10:14:09.229Z,12.03
2018-09-02T10:16:37.655Z,12.50
2018-09-02T10:19:06.227Z,11.87
2018-09-02T10:21:35.100Z,14.07
2018-09-02T10:24:03.473Z,12.90
2018-09-02T10:26:31.475Z,12.77
2018-09-02T10:29:00.116Z,13.60
2018-09-02T10:31:28.746Z,13.80
2018-09-02T10:33:56.680Z,13.27
2018-09-02T10:36:25.358Z,13.63
2018-09-02T10:38:53.290Z,12.90
2018-09-02T10:41:22.408Z,12.77
2018-09-02T10:43:52.810Z,11.77
2018-09-02T10:46:21.475Z,13.83
2018-09-02T10:48:50.044Z,12.70
2018-09-02T10:51:18.631Z,12.50
2018-09-02T10:53:46.551Z,12.53
2018-09-02T10:56:15.986Z,12.63
2018-09-02T10:58:44.273Z,13.50
2018-09-02T11:01:12.167Z,12.93
2018-09-02T11:03:40.061Z,14.10
2018-09-02T11:06:08.223Z,13.00
2018-09-02T11:08:36.179Z,13.33
2018-09-02T11:11:04.272Z,12.10
2018-09-02T11:13:32.508Z,12.40
2018-09-02T11:16:02.838Z,11.17
2018-09-02T11:18:31.899Z,11.57
2018-09-02T11:20:59.800Z,11.80
2018-09-02T11:23:28.750Z,11.83
2018-09-02T11:25:56.770Z,11.00
2018-09-02T11:28:26.892Z,12.20
2018-09-02T11:30:55.273Z,11.30
2018-09-02T11:33:24.612Z,11.00
2018-09-02T11:35:53.214Z,13.20
2018-09-02T11:38:21.170Z,11.43
2018-09-02T11:40:49.144Z,12.27
2018-09-02T11:43:17.964Z,12.00
2018-09-02T11:45:47.458Z,11.37
2018-09-02T11:48:16.203Z,13.33
2018-09-02T11:50:44.636Z,12.73
2018-09-02T11:53:13.194Z,14.23
2018-09-02T11:55:42.455Z,12.10
2018-09-02T11:58:12.834Z,12.90
2018-09-02T12:00:41.693Z,13.77
2018-09-02T12:03:10.617Z,12.57
2018-09-02T12:05:39.306Z,14.43
2018-09-02T12:08:07.320Z,14.67
2018-09-02T12:10:37.195Z,14.43
2018-09-02T12:13:08.174Z,14.67
2018-09-02T12:15:36.708Z,16.13
2018-09-02T12:18:06.965Z,15.10
2018-09-02T12:20:34.963Z,14.20
2018-09-02T12:23:06.073Z,15.00
2018-09-02T12:25:34.617Z,16.23
2018-09-02T12:28:03.129Z,16.73
2018-09-02T12:30:31.392Z,16.30
2018-09-02T12:32:59.961Z,17.47
2018-09-02T12:35:27.987Z,14.97
2018-09-02T12:37:59.493Z,17.70
2018-09-02T12:40:27.579Z,18.30
2018-09-02T12:42:56.249Z,20.97
2018-09-02T12:45:24.293Z,19.60
2018-09-02T12:47:57.574Z,22.27
2018-09-02T12:50:27.013Z,21.17
2018-09-02T12:53:01.603Z,22.07
2018-09-02T12:55:38.370Z,21.90
2018-09-02T12:58:11.864Z,20.23
2018-09-02T13:00:43.707Z,21.07
2018-09-02T13:03:18.539Z,20.50
2018-09-02T13:05:46.570Z,21.73
2018-09-02T13:08:20.427Z,21.17
2018-09-02T13:17:48.555Z,20.30
2018-09-02T13:20:23.835Z,21.27
2018-09-02T13:22:55.247Z,22.73
2018-09-02T13:25:25.744Z,22.53
2018-09-02T13:27:59.217Z,19.73
2018-09-02T13:30:28.898Z,20.40
2018-09-02T13:33:00.321Z,20.80
2018-09-02T13:35:34.339Z,19.00
2018-09-02T13:38:05.749Z,18.03
2018-09-02T13:40:36.558Z,19.03
2018-09-02T13:43:05.306Z,19.67
2018-09-02T13:45:33.804Z,18.93
2018-09-02T13:48:05.233Z,19.57
2018-09-02T13:50:36.768Z,18.77
2018-09-02T13:53:08.614Z,19.17
2018-09-02T13:55:39.103Z,19.50
2018-09-02T13:58:09.622Z,18.50
2018-09-02T14:00:40.460Z,19.67
2018-09-02T14:03:17.259Z,16.83
2018-09-02T14:05:47.386Z,18.90
2018-09-02T14:08:19.504Z,18.77
2018-09-02T14:10:50.348Z,19.07
2018-09-02T14:13:21.015Z,20.90
2018-09-02T14:15:53.360Z,20.80
2018-09-02T14:18:24.811Z,21.23
2018-09-02T14:20:54.807Z,20.67
2018-09-02T14:23:23.694Z,21.47
2018-09-02T14:25:54.460Z,20.53
2018-09-02T14:28:25.392Z,21.33
2018-09-02T14:30:55.159Z,22.80
2018-09-02T14:33:31.649Z,20.73
2018-09-02T14:36:03.082Z,21.60
2018-09-02T14:38:33.087Z,23.00
2018-09-02T14:41:04.340Z,21.70
2018-09-02T14:43:34.198Z,22.13
2018-09-02T14:46:03.837Z,22.63
2018-09-02T14:48:33.005Z,23.00
2018-09-02T14:51:02.289Z,22.03
2018-09-02T14:53:34.457Z,23.63
2018-09-02T14:56:07.140Z,25.00
2018-09-02T14:58:37.261Z,22.33
2018-09-02T15:01:08.733Z,25.77
2018-09-02T15:03:37.784Z,29.67
2018-09-02T15:06:07.556Z,26.47
2018-09-02T15:08:37.319Z,40.50
2018-09-02T15:11:07.450Z,28.57
2018-09-02T15:13:37.944Z,24.63
2018-09-02T15:16:08.086Z,24.47
2018-09-02T15:18:38.332Z,31.07
2018-09-02T15:21:08.168Z,30.40
2018-09-02T15:23:37.998Z,29.90
2018-09-02T15:26:11.169Z,25.30
2018-09-02T15:28:45.448Z,27.07
2018-09-02T15:31:14.037Z,31.97
2018-09-02T15:33:45.029Z,26.30
2018-09-02T15:36:19.907Z,26.50
2018-09-02T15:38:50.837Z,26.50
2018-09-02T15:41:25.776Z,25.77
2018-09-02T15:43:58.469Z,34.73
2018-09-02T15:46:27.851Z,34.80
2018-09-02T15:48:58.284Z,28.27
2018-09-02T15:51:26.779Z,30.33
2018-09-02T15:53:57.395Z,41.90
2018-09-02T15:56:30.584Z,37.27
2018-09-02T15:59:04.397Z,26.77
2018-09-02T16:01:33.194Z,25.47
2018-09-02T16:04:02.977Z,23.93
2018-09-02T16:06:34.083Z,26.50
2018-09-02T16:09:03.708Z,26.30
2018-09-02T16:11:36.952Z,27.37
2018-09-02T16:14:08.001Z,26.57
2018-09-02T16:16:44.641Z,26.37
2018-09-02T16:19:13.971Z,27.07
2018-09-02T16:21:45.533Z,25.27
2018-09-02T16:26:39.936Z,23.80
2018-09-02T16:29:12.181Z,24.63
2018-09-02T16:31:43.240Z,27.23
2018-09-02T16:34:17.753Z,30.40
2018-09-02T16:36:49.342Z,35.10
2018-09-02T16:39:19.950Z,31.23
2018-09-02T16:41:51.445Z,30.47
2018-09-02T16:44:22.849Z,24.60
2018-09-02T16:46:55.824Z,25.27
2018-09-02T16:49:27.130Z,25.30
2018-09-02T16:51:59.731Z,29.30
2018-09-02T16:54:30.283Z,25.40
2018-09-02T16:57:01.758Z,27.90
2018-09-02T16:59:35.113Z,25.47
2018-09-02T17:02:05.947Z,27.20
2018-09-02T17:04:37.164Z,27.00
2018-09-02T17:07:07.536Z,27.53
2018-09-02T17:09:40.360Z,26.47
2018-09-02T17:12:13.286Z,29.47
2018-09-02T17:14:43.037Z,27.53
2018-09-02T17:17:14.623Z,26.50
2018-09-02T17:19:47.594Z,26.33
2018-09-02T17:22:20.184Z,28.07
2018-09-02T17:24:54.033Z,27.90
2018-09-02T17:27:23.677Z,32.70
2018-09-02T17:29:56.007Z,29.90
2018-09-02T18:08:46.891Z,32.90
2018-09-02T18:11:21.417Z,30.63
2018-09-02T18:13:53.604Z,31.27
2018-09-02T18:16:27.482Z,32.90
2018-09-02T18:18:58.005Z,32.60
2018-09-02T18:21:32.188Z,31.80
2018-09-02T18:24:09.477Z,31.50
2018-09-02T18:26:42.325Z,31.07
2018-09-02T18:29:14.321Z,31.10
2018-09-02T18:31:45.930Z,34.20
2018-09-02T18:34:17.429Z,32.70
2018-09-02T18:36:51.762Z,32.03
2018-09-02T18:39:23.531Z,31.67
2018-09-02T18:41:57.126Z,31.87
2018-09-02T18:44:32.727Z,31.53
2018-09-02T18:47:09.034Z,30.70
2018-09-02T18:49:44.301Z,30.90
2018-09-02T18:52:16.151Z,31.93
2018-09-02T18:54:48.715Z,33.10
2018-09-02T18:57:19.528Z,37.47
2018-09-02T18:59:48.773Z,31.80
2018-09-02T19:02:27.020Z,31.23
2018-09-02T19:05:01.434Z,29.23
2018-09-02T19:07:36.169Z,33.37
2018-09-02T19:10:08.740Z,35.20
2018-09-02T19:12:40.427Z,31.30
2018-09-02T19:15:15.174Z,28.13
2018-09-02T19:17:46.042Z,29.90
2018-09-02T19:20:17.310Z,29.27
2018-09-02T19:22:47.031Z,38.67
2018-09-02T19:25:19.320Z,33.27
2018-09-02T19:27:53.702Z,31.37
2018-09-02T19:30:25.461Z,30.07
2018-09-02T19:32:58.224Z,27.87
2018-09-02T19:35:29.840Z,29.03
2018-09-02T19:38:03.374Z,31.80
2018-09-02T19:40:37.169Z,28.47
2018-09-02T19:43:10.392Z,28.30
2018-09-02T19:45:43.144Z,27.40
2018-09-02T19:48:18.798Z,29.63
2018-09-02T19:50:52.520Z,34.93
2018-09-02T19:53:25.390Z,32.17
2018-09-02T19:56:02.174Z,32.63
2018-09-02T19:58:37.013Z,33.63
2018-09-02T20:01:09.680Z,36.60
2018-09-02T20:03:42.749Z,33.80
2018-09-02T20:06:21.540Z,29.97
2018-09-02T20:08:55.032Z,27.13
2018-09-02T20:11:26.523Z,26.40
2018-09-02T20:13:58.387Z,28.30
2018-09-02T20:16:30.362Z,28.60
2018-09-02T20:19:02.116Z,31.17
2018-09-02T20:21:35.771Z,28.93
2018-09-02T20:24:09.593Z,27.30
2018-09-02T20:26:42.972Z,27.47
2018-09-02T20:29:17.747Z,28.80
2018-09-02T20:31:48.838Z,31.20
2018-09-02T20:34:23.158Z,29.13
2018-09-02T20:36:54.293Z,25.10
2018-09-02T20:39:26.438Z,23.73
2018-09-02T20:41:59.606Z,24.57
2018-09-02T20:44:33.366Z,24.33
2018-09-02T20:47:07.000Z,20.30
2018-09-02T20:49:39.585Z,21.83
2018-09-02T20:52:10.772Z,19.93
2018-09-02T20:54:44.602Z,22.23
2018-09-02T20:57:20.003Z,22.70
2018-09-02T20:59:56.015Z,25.03
2018-09-02T21:02:28.180Z,25.93
2018-09-02T21:05:03.102Z,26.40
2018-09-02T21:07:39.999Z,24.67
2018-09-02T21:10:11.154Z,27.67
2018-09-02T21:12:40.836Z,27.17
2018-09-02T21:15:12.066Z,28.57
2018-09-02T21:17:41.991Z,25.57
2018-09-02T21:20:15.334Z,25.37
2018-09-02T21:22:46.621Z,26.77
2018-09-02T21:25:18.210Z,24.90
2018-09-02T21:27:50.373Z,26.17
2018-09-02T21:30:25.043Z,25.27
2018-09-02T21:32:57.510Z,28.93
2018-09-02T21:35:27.640Z,30.07
2018-09-02T21:37:57.821Z,24.23
2018-09-02T21:40:31.179Z,24.37
2018-09-02T21:43:06.882Z,26.63
2018-09-02T21:45:38.488Z,24.37
2018-09-02T21:48:22.604Z,24.70
2018-09-02T21:50:54.037Z,24.23
2018-09-02T21:53:24.271Z,24.57
2018-09-02T21:56:01.091Z,28.13
2018-09-02T21:58:31.999Z,23.80
2018-09-02T22:01:09.313Z,23.47
2018-09-02T22:03:40.353Z,21.83
2018-09-02T22:06:11.267Z,23.73
2018-09-02T22:08:44.451Z,22.00
2018-09-02T22:11:15.667Z,23.00
2018-09-02T22:13:48.512Z,24.20
2018-09-02T22:16:19.890Z,25.50
2018-09-02T22:18:56.125Z,22.00
2018-09-02T22:21:30.956Z,23.50
2018-09-02T22:24:03.473Z,26.00
2018-09-02T22:26:33.957Z,23.87
2018-09-02T22:29:06.383Z,23.27
2018-09-02T22:31:37.349Z,23.67
2018-09-02T22:34:09.240Z,27.93
2018-09-02T22:36:41.975Z,22.87
2018-09-02T22:39:12.073Z,22.63
2018-09-02T22:41:42.262Z,23.47
2018-09-02T22:44:14.092Z,23.70
2018-09-02T22:46:43.886Z,23.53
2018-09-02T22:49:16.797Z,22.07
2018-09-02T22:51:46.773Z,24.27
2018-09-02T22:54:17.622Z,23.60
2018-09-02T22:56:50.225Z,25.60
2018-09-02T22:59:20.361Z,24.53
2018-09-02T23:01:56.715Z,25.23
2018-09-02T23:04:28.275Z,24.40
2018-09-02T23:06:59.485Z,25.03
2018-09-02T23:09:28.287Z,24.30
2018-09-02T23:11:59.107Z,26.27
2018-09-02T23:14:31.901Z,26.23
2018-09-02T23:17:04.294Z,25.30
2018-09-02T23:19:43.565Z,25.60
2018-09-02T23:22:16.588Z,25.57
2018-09-02T23:24:47.393Z,24.70
2018-09-02T23:27:19.491Z,26.50
2018-09-02T23:29:54.499Z,25.33
2018-09-02T23:32:27.414Z,27.10
2018-09-02T23:35:01.522Z,26.07
2018-09-02T23:37:32.388Z,23.20
2018-09-02T23:40:01.068Z,24.53
2018-09-02T23:42:33.307Z,23.83
2018-09-02T23:45:04.482Z,27.07
2018-09-02T23:47:36.742Z,28.87
2018-09-02T23:50:10.625Z,26.73
2018-09-02T23:52:38.595Z,29.57
2018-09-02T23:55:06.624Z,27.20
2018-09-02T23:57:35.224Z,28.00
